createdAt,value
2018-12-05T00:01:19.073Z,17.35
2018-12-05T00:03:47.735Z,19.43
2018-12-05T00:06:13.697Z,20.05
2018-12-05T00:08:43.559Z,17.13
2018-12-05T00:11:09.525Z,35.80
2018-12-05T00:13:35.438Z,18.77
2018-12-05T00:16:01.345Z,14.77
2018-12-05T00:18:27.197Z,19.20
2018-12-05T00:20:54.830Z,23.13
2018-12-05T00:23:20.689Z,24.52
2018-12-05T00:25:49.539Z,20.30
2018-12-05T00:28:15.446Z,24.55
2018-12-05T00:30:45.236Z,17.23
2018-12-05T00:33:11.111Z,24.95
2018-12-05T00:35:38.841Z,19.90
2018-12-05T00:38:04.712Z,20.17
2018-12-05T00:40:34.572Z,17.73
2018-12-05T00:43:00.436Z,25.27
2018-12-05T00:45:29.539Z,26.80
2018-12-05T00:47:55.611Z,21.48
2018-12-05T00:50:21.496Z,21.93
2018-12-05T00:52:47.354Z,24.87
2018-12-05T00:55:13.231Z,23.43
2018-12-05T00:57:40.122Z,19.77
2018-12-05T01:00:07.066Z,19.87
2018-12-05T01:02:36.080Z,22.25
2018-12-05T01:05:02.276Z,20.82
2018-12-05T01:07:29.933Z,21.42
2018-12-05T01:09:55.803Z,24.60
2018-12-05T01:12:24.876Z,23.43
2018-12-05T01:14:51.334Z,23.75
2018-12-05T01:17:20.404Z,18.50
2018-12-05T01:19:46.271Z,21.37
2018-12-05T01:22:15.335Z,30.47
2018-12-05T01:24:41.260Z,28.23
2018-12-05T01:27:07.154Z,31.97
2018-12-05T01:29:33.021Z,22.70
2018-12-05T01:31:58.943Z,23.10
2018-12-05T01:34:25.448Z,20.93
2018-12-05T01:36:51.428Z,30.55
2018-12-05T01:39:19.601Z,28.27
2018-12-05T01:41:45.512Z,29.80
2018-12-05T01:46:42.377Z,21.73
2018-12-05T01:49:11.369Z,21.70
2018-12-05T01:51:37.307Z,23.05
2018-12-05T01:54:04.688Z,23.70
2018-12-05T01:56:30.585Z,23.77
2018-12-05T01:59:00.416Z,23.87
2018-12-05T02:01:26.323Z,32.08
2018-12-05T02:03:52.171Z,28.23
2018-12-05T02:06:18.090Z,29.73
2018-12-05T02:08:43.957Z,41.60
2018-12-05T02:11:11.120Z,26.97
2018-12-05T02:13:37.059Z,27.00
2018-12-05T02:16:07.007Z,26.87
2018-12-05T02:18:33.159Z,26.87
2018-12-05T02:21:00.713Z,33.33
2018-12-05T02:23:26.612Z,27.85
2018-12-05T02:25:55.697Z,29.63
2018-12-05T02:28:21.595Z,24.72
2018-12-05T02:30:50.702Z,25.10
2018-12-05T02:33:16.747Z,28.10
2018-12-05T02:35:44.460Z,27.80
2018-12-05T02:38:10.357Z,27.05
2018-12-05T02:40:36.334Z,25.70
2018-12-05T02:43:02.263Z,27.60
2018-12-05T02:45:28.174Z,25.73
2018-12-05T02:47:57.243Z,31.43
2018-12-05T02:50:23.136Z,26.55
2018-12-05T02:52:51.085Z,37.57
2018-12-05T02:55:16.980Z,26.42
2018-12-05T02:57:46.061Z,27.67
2018-12-05T03:00:12.164Z,28.92
2018-12-05T03:02:41.663Z,29.72
2018-12-05T03:05:07.991Z,24.60
2018-12-05T03:07:35.413Z,31.57
2018-12-05T03:10:01.438Z,26.62
2018-12-05T03:12:30.346Z,29.12
2018-12-05T03:14:59.766Z,30.23
2018-12-05T03:17:27.357Z,26.73
2018-12-05T03:19:53.237Z,24.32
2018-12-05T03:22:19.126Z,23.60
2018-12-05T03:24:45.045Z,25.23
2018-12-05T03:27:10.916Z,22.90
2018-12-05T03:29:36.834Z,26.77
2018-12-05T03:32:02.724Z,24.73
2018-12-05T03:34:31.891Z,26.20
2018-12-05T03:36:57.901Z,22.05
2018-12-05T03:39:26.923Z,25.20
2018-12-05T03:41:52.800Z,29.95
2018-12-05T03:44:21.854Z,28.83
2018-12-05T03:46:47.761Z,24.50
2018-12-05T03:49:14.917Z,36.08
2018-12-05T03:51:40.848Z,33.40
2018-12-05T03:54:06.734Z,31.10
2018-12-05T03:56:32.622Z,34.17
2018-12-05T03:58:58.532Z,30.60
2018-12-05T04:01:27.963Z,32.77
2018-12-05T04:03:53.958Z,29.98
2018-12-05T04:06:21.738Z,31.03
2018-12-05T04:08:47.627Z,32.58
2018-12-05T04:11:17.546Z,31.20
2018-12-05T04:13:43.430Z,31.93
2018-12-05T04:16:11.228Z,32.13
2018-12-05T04:18:37.128Z,39.50
2018-12-05T04:21:06.860Z,36.80
2018-12-05T04:23:32.907Z,31.07
2018-12-05T04:26:00.599Z,29.80
2018-12-05T04:28:26.513Z,36.08
2018-12-05T04:30:52.421Z,29.57
2018-12-05T04:33:18.356Z,38.47
2018-12-05T04:35:44.254Z,40.23
2018-12-05T04:38:13.495Z,35.63
2018-12-05T04:40:39.420Z,41.77
2018-12-05T04:43:07.128Z,38.53
2018-12-05T04:45:33.029Z,35.15
2018-12-05T04:48:02.876Z,40.87
2018-12-05T04:50:28.834Z,37.98
2018-12-05T04:52:56.404Z,36.00
2018-12-05T04:55:22.256Z,31.48
2018-12-05T04:57:51.028Z,35.13
2018-12-05T05:00:16.971Z,33.50
2018-12-05T05:02:46.694Z,35.87
2018-12-05T05:05:12.756Z,36.77
2018-12-05T05:07:38.645Z,32.63
2018-12-05T05:10:05.060Z,33.87
2018-12-05T05:12:31.074Z,32.15
2018-12-05T05:14:57.170Z,35.63
2018-12-05T05:17:23.077Z,27.32
2018-12-05T05:19:52.154Z,25.07
2018-12-05T05:22:18.032Z,30.20
2018-12-05T05:24:47.478Z,33.47
2018-12-05T05:27:13.359Z,32.20
2018-12-05T05:29:42.848Z,35.10
2018-12-05T05:32:08.769Z,42.40
2018-12-05T05:34:36.661Z,37.42
2018-12-05T05:37:02.569Z,36.60
2018-12-05T05:39:32.508Z,41.00
2018-12-05T05:41:58.435Z,34.33
2018-12-05T05:44:24.363Z,37.73
2018-12-05T05:46:50.271Z,39.00
2018-12-05T05:49:16.854Z,34.10
2018-12-05T05:51:42.808Z,43.08
2018-12-05T05:54:08.838Z,36.40
2018-12-05T05:56:37.553Z,32.98
2018-12-05T05:59:03.552Z,39.98
2018-12-05T06:01:32.372Z,33.95
2018-12-05T06:03:58.313Z,36.65
2018-12-05T06:06:27.860Z,41.00
2018-12-05T06:08:53.764Z,42.10
2018-12-05T06:11:22.660Z,36.50
2018-12-05T06:13:48.578Z,32.85
2018-12-05T06:16:16.445Z,36.77
2018-12-05T06:18:42.320Z,42.73
2018-12-05T06:21:08.275Z,35.53
2018-12-05T06:23:34.202Z,39.80
2018-12-05T06:26:00.133Z,35.33
2018-12-05T06:28:29.691Z,40.17
2018-12-05T06:30:55.573Z,40.30
2018-12-05T06:33:24.522Z,41.83
2018-12-05T06:35:50.404Z,47.53
2018-12-05T06:38:17.358Z,48.20
2018-12-05T06:40:43.226Z,40.28
2018-12-05T06:43:12.210Z,47.10
2018-12-05T06:45:38.128Z,33.88
2018-12-05T06:48:07.998Z,36.90
2018-12-05T06:50:33.970Z,29.95
2018-12-05T06:53:03.100Z,36.40
2018-12-05T06:55:29.030Z,33.02
2018-12-05T06:57:55.132Z,34.67
2018-12-05T07:00:21.020Z,41.70
2018-12-05T07:02:46.888Z,37.27
2018-12-05T07:05:14.092Z,38.73
2018-12-05T07:07:39.999Z,34.58
2018-12-05T07:10:07.842Z,38.07
2018-12-05T07:12:33.782Z,32.90
2018-12-05T07:15:02.847Z,26.27
2018-12-05T07:17:28.791Z,29.72
2018-12-05T07:19:58.224Z,29.90
2018-12-05T07:22:24.153Z,25.95
2018-12-05T07:24:53.488Z,32.00
2018-12-05T07:27:19.411Z,23.98
2018-12-05T07:29:47.114Z,26.10
2018-12-05T07:32:13.050Z,24.18
2018-12-05T07:34:38.945Z,30.17
2018-12-05T07:37:04.821Z,27.13
2018-12-05T07:39:30.692Z,27.50
2018-12-05T07:42:00.012Z,27.60
2018-12-05T07:44:25.883Z,21.40
2018-12-05T07:46:53.750Z,23.40
2018-12-05T07:49:19.646Z,23.30
2018-12-05T07:51:48.030Z,21.23
2018-12-05T07:54:13.928Z,21.00
2018-12-05T07:56:43.212Z,25.53
2018-12-05T07:59:09.105Z,25.52
2018-12-05T08:01:38.943Z,20.60
2018-12-05T08:04:04.955Z,24.43
2018-12-05T08:06:32.562Z,28.32
2018-12-05T08:08:58.497Z,21.23
2018-12-05T08:11:24.474Z,21.10
2018-12-05T08:13:50.353Z,21.37
2018-12-05T08:16:16.281Z,23.23
2018-12-05T08:18:45.687Z,20.10
2018-12-05T08:21:11.565Z,28.20
2018-12-05T08:23:38.654Z,24.40
2018-12-05T08:26:04.530Z,20.12
2018-12-05T08:28:34.241Z,24.80
2018-12-05T08:31:00.142Z,21.87
2018-12-05T08:33:29.152Z,26.37
2018-12-05T08:35:55.058Z,23.52
2018-12-05T08:38:22.959Z,23.53
2018-12-05T08:40:48.889Z,25.48
2018-12-05T08:43:18.516Z,26.90
2018-12-05T08:45:44.398Z,21.25
2018-12-05T08:48:10.272Z,24.57
2018-12-05T08:50:36.180Z,25.60
2018-12-05T08:53:02.090Z,25.00
2018-12-05T08:55:29.828Z,20.20
2018-12-05T08:57:55.706Z,21.35
2018-12-05T09:00:25.679Z,22.07
2018-12-05T09:02:51.632Z,21.52
2018-12-05T09:05:19.503Z,22.80
2018-12-05T09:07:45.413Z,21.93
2018-12-05T09:10:14.403Z,23.97
2018-12-05T09:12:40.439Z,23.73
2018-12-05T09:15:08.264Z,21.77
2018-12-05T09:17:34.190Z,22.82
2018-12-05T09:20:04.004Z,20.70
2018-12-05T09:22:41.054Z,16.48
2018-12-05T09:25:01.953Z,22.00
2018-12-05T09:27:27.832Z,21.47
2018-12-05T09:29:53.724Z,17.50
2018-12-05T09:32:19.617Z,17.53
2018-12-05T09:34:45.515Z,19.30
2018-12-05T09:37:11.392Z,19.63
2018-12-05T09:39:37.297Z,15.90
2018-12-05T09:42:04.178Z,19.60
2018-12-05T09:44:30.089Z,21.52
2018-12-05T09:46:58.872Z,23.03
2018-12-05T09:49:24.771Z,19.17
2018-12-05T09:51:53.898Z,17.43
2018-12-05T09:54:19.786Z,14.25
2018-12-05T09:56:49.614Z,15.17
2018-12-05T09:59:15.515Z,19.50
2018-12-05T10:01:41.412Z,24.00
2018-12-05T10:04:07.303Z,18.87
2018-12-05T10:06:33.226Z,20.93
2018-12-05T10:09:00.388Z,17.30
2018-12-05T10:11:26.258Z,17.85
2018-12-05T10:13:54.731Z,17.13
2018-12-05T10:16:23.084Z,13.60
2018-12-05T10:18:49.864Z,13.93
2018-12-05T10:21:15.745Z,22.05
2018-12-05T10:23:45.523Z,12.87
2018-12-05T10:26:11.466Z,17.67
2018-12-05T10:28:40.464Z,24.50
2018-12-05T10:31:06.642Z,15.90
2018-12-05T10:33:33.396Z,12.93
2018-12-05T10:35:59.286Z,15.40
2018-12-05T10:38:25.186Z,13.53
2018-12-05T10:40:51.059Z,13.70
2018-12-05T10:43:16.942Z,15.23
2018-12-05T10:45:46.756Z,11.30
2018-12-05T10:48:12.666Z,12.78
2018-12-05T10:50:40.161Z,12.10
2018-12-05T10:53:06.178Z,12.23
2018-12-05T10:55:34.463Z,13.48
2018-12-05T10:58:00.352Z,16.30
2018-12-05T11:00:32.590Z,14.10
2018-12-05T11:06:08.966Z,14.53
2018-12-05T11:08:41.186Z,12.43
2018-12-05T11:11:13.206Z,13.08
2018-12-05T11:13:45.342Z,16.02
2018-12-05T11:19:15.960Z,15.75
2018-12-05T11:21:52.746Z,14.90
2018-12-05T11:24:25.097Z,14.53
2018-12-05T11:26:51.921Z,13.08
2018-12-05T11:29:17.808Z,14.58
2018-12-05T11:31:43.646Z,12.70
2018-12-05T11:34:09.519Z,13.40
2018-12-05T11:36:35.436Z,14.10
2018-12-05T11:39:01.329Z,11.33
2018-12-05T11:41:27.211Z,11.50
2018-12-05T11:43:53.112Z,9.47
2018-12-05T11:46:19.150Z,12.97
2018-12-05T11:48:45.019Z,80.05
2018-12-05T11:51:11.131Z,12.50
2018-12-05T11:53:37.020Z,10.13
2018-12-05T11:56:02.933Z,7.83
2018-12-05T11:58:28.898Z,10.93
2018-12-05T12:00:54.800Z,10.17
2018-12-05T12:03:20.705Z,10.27
2018-12-05T12:05:46.588Z,14.50
2018-12-05T12:08:12.472Z,7.97
2018-12-05T12:10:39.190Z,9.43
2018-12-05T12:13:05.303Z,9.10
2018-12-05T12:15:31.589Z,7.22
2018-12-05T12:17:57.523Z,12.70
2018-12-05T12:20:23.431Z,9.57
2018-12-05T12:22:53.228Z,10.23
2018-12-05T12:25:19.098Z,8.33
2018-12-05T12:27:44.968Z,11.50
2018-12-05T12:30:15.820Z,7.77
2018-12-05T12:32:38.718Z,10.00
2018-12-05T12:35:04.771Z,8.17
2018-12-05T12:37:30.639Z,9.68
2018-12-05T12:39:56.599Z,10.53
2018-12-05T12:42:22.475Z,7.27
2018-12-05T12:44:48.359Z,7.80
2018-12-05T12:47:14.206Z,6.60
2018-12-05T12:49:40.091Z,6.87
2018-12-05T12:52:06.020Z,8.70
2018-12-05T12:54:31.900Z,11.53
2018-12-05T12:56:57.819Z,6.63
2018-12-05T12:59:23.710Z,6.67
2018-12-05T13:01:49.670Z,12.07
2018-12-05T13:04:15.605Z,11.73
2018-12-05T13:06:41.490Z,6.03
2018-12-05T13:09:07.391Z,9.70
2018-12-05T13:11:36.619Z,6.63
2018-12-05T13:14:02.526Z,5.75
2018-12-05T13:16:31.487Z,7.40
2018-12-05T13:18:57.406Z,6.25
2018-12-05T13:21:23.301Z,5.27
2018-12-05T13:23:49.228Z,5.43
2018-12-05T13:26:15.090Z,5.20
2018-12-05T13:28:42.509Z,8.03
2018-12-05T13:31:08.413Z,5.10
2018-12-05T13:33:37.443Z,5.47
2018-12-05T13:36:03.720Z,9.63
2018-12-05T13:38:31.235Z,6.90
2018-12-05T13:40:57.145Z,8.93
2018-12-05T13:43:25.854Z,6.10
2018-12-05T13:45:51.688Z,8.60
2018-12-05T13:48:21.326Z,6.03
2018-12-05T13:50:47.228Z,6.22
2018-12-05T13:53:16.620Z,5.93
2018-12-05T13:55:42.517Z,9.63
2018-12-05T13:58:08.429Z,6.30
2018-12-05T14:00:34.285Z,5.50
2018-12-05T14:03:00.158Z,5.50
2018-12-05T14:05:27.908Z,4.80
2018-12-05T14:07:53.826Z,5.28
2018-12-05T14:10:23.570Z,8.60
2018-12-05T14:12:49.453Z,5.55
2018-12-05T14:15:18.523Z,8.70
2018-12-05T14:17:44.404Z,8.15
2018-12-05T14:20:12.164Z,5.27
2018-12-05T14:22:38.026Z,6.45
2018-12-05T14:25:06.150Z,8.07
2018-12-05T14:27:32.075Z,6.97
2018-12-05T14:30:01.824Z,8.73
2018-12-05T14:32:27.768Z,7.25
2018-12-05T14:34:53.671Z,7.07
2018-12-05T14:37:19.594Z,6.90
2018-12-05T14:39:45.452Z,6.90
2018-12-05T14:42:12.926Z,7.20
2018-12-05T14:44:39.185Z,10.48
2018-12-05T14:47:08.756Z,8.55
2018-12-05T14:49:34.639Z,10.80
2018-12-05T14:52:03.774Z,7.40
2018-12-05T14:54:29.693Z,10.28
2018-12-05T14:56:57.403Z,10.07
2018-12-05T14:59:23.272Z,13.65
2018-12-05T15:01:52.243Z,9.83
2018-12-05T15:04:18.130Z,10.23
2018-12-05T15:06:47.024Z,16.23
2018-12-05T15:09:13.008Z,13.72
2018-12-05T15:11:38.867Z,13.47
2018-12-05T15:14:04.761Z,20.97
2018-12-05T15:16:30.631Z,21.43
2018-12-05T15:18:58.052Z,31.60
2018-12-05T15:21:23.900Z,19.95
2018-12-05T15:23:53.402Z,23.37
2018-12-05T15:26:19.292Z,22.05
2018-12-05T15:28:48.381Z,23.20
2018-12-05T15:31:15.129Z,24.70
2018-12-05T15:33:42.503Z,23.60
2018-12-05T15:36:08.391Z,22.98
2018-12-05T15:38:38.080Z,27.23
2018-12-05T15:41:03.968Z,21.95
2018-12-05T15:43:31.770Z,31.50
2018-12-05T15:45:57.657Z,28.12
2018-12-05T15:48:23.489Z,26.13
2018-12-05T15:50:49.393Z,29.90
2018-12-05T15:53:15.266Z,24.10
2018-12-05T15:55:43.082Z,25.17
2018-12-05T15:58:09.000Z,28.57
2018-12-05T16:00:38.058Z,25.23
2018-12-05T16:03:03.967Z,26.10
2018-12-05T16:05:32.892Z,27.27
2018-12-05T16:07:59.334Z,27.65
2018-12-05T16:10:28.541Z,23.80
2018-12-05T16:12:54.459Z,28.42
2018-12-05T16:15:22.397Z,23.37
2018-12-05T16:17:48.289Z,29.35
2018-12-05T16:20:16.685Z,29.73
2018-12-05T16:22:42.564Z,30.35
2018-12-05T16:25:08.481Z,25.03
2018-12-05T16:27:34.344Z,29.33
2018-12-05T16:30:00.237Z,32.97
2018-12-05T16:32:28.605Z,24.10
2018-12-05T16:34:54.533Z,31.75
2018-12-05T16:37:23.781Z,46.50
2018-12-05T16:39:49.682Z,28.25
2018-12-05T16:42:18.414Z,29.03
2018-12-05T16:44:44.308Z,32.95
2018-12-05T16:47:13.165Z,26.13
2018-12-05T16:49:40.489Z,26.20
2018-12-05T16:52:08.266Z,28.92
2018-12-05T16:54:34.458Z,26.93
2018-12-05T16:57:03.856Z,32.05
2018-12-05T16:59:29.723Z,39.15
2018-12-05T17:01:55.622Z,31.67
2018-12-05T17:04:21.506Z,25.87
2018-12-05T17:06:47.404Z,26.67
2018-12-05T17:09:14.592Z,27.63
2018-12-05T17:11:40.460Z,27.02
2018-12-05T17:14:09.381Z,30.07
2018-12-05T17:16:35.273Z,29.12
2018-12-05T17:19:05.579Z,26.37
2018-12-05T17:21:33.061Z,30.35
2018-12-05T17:23:59.196Z,28.10
2018-12-05T17:26:25.094Z,24.73
2018-12-05T17:28:54.472Z,26.63
2018-12-05T17:31:20.348Z,26.30
2018-12-05T17:33:49.458Z,28.03
2018-12-05T17:36:15.752Z,29.75
2018-12-05T17:38:41.653Z,27.80
2018-12-05T17:41:07.538Z,31.53
2018-12-05T17:43:33.887Z,24.57
2018-12-05T17:45:59.930Z,24.02
2018-12-05T17:48:25.883Z,24.65
2018-12-05T17:50:54.946Z,29.90
2018-12-05T17:53:20.836Z,26.20
2018-12-05T17:55:49.776Z,36.10
2018-12-05T17:58:15.670Z,23.73
2018-12-05T18:00:44.607Z,27.30
2018-12-05T18:03:10.532Z,25.15
2018-12-05T18:05:38.241Z,27.53
2018-12-05T18:08:04.139Z,30.55
2018-12-05T18:10:33.072Z,36.63
2018-12-05T18:12:58.967Z,24.65
2018-12-05T18:15:24.855Z,23.80
2018-12-05T18:17:51.164Z,22.33
2018-12-05T18:20:17.151Z,30.75
2018-12-05T18:22:44.684Z,27.43
2018-12-05T18:25:10.619Z,23.00
2018-12-05T18:27:39.648Z,18.93
2018-12-05T18:30:06.146Z,20.82
2018-12-05T18:32:35.171Z,20.37
2018-12-05T18:35:01.076Z,20.82
2018-12-05T18:37:29.061Z,26.37
2018-12-05T18:39:55.409Z,21.60
2018-12-05T18:42:24.694Z,23.85
2018-12-05T18:44:50.580Z,24.57
2018-12-05T18:47:19.639Z,22.17
2018-12-05T18:49:45.537Z,24.87
2018-12-05T18:52:11.577Z,22.95
2018-12-05T18:54:37.433Z,20.13
2018-12-05T18:57:09.408Z,17.80
2018-12-05T18:59:34.198Z,24.80
2018-12-05T19:02:00.078Z,24.90
2018-12-05T19:04:25.947Z,17.67
2018-12-05T19:06:51.845Z,19.43
2018-12-05T19:09:26.841Z,19.43
2018-12-05T19:11:49.242Z,21.12
2018-12-05T19:14:21.419Z,16.10
2018-12-05T19:16:48.553Z,17.55
2018-12-05T19:19:14.602Z,27.65
2018-12-05T19:21:40.576Z,21.68
2018-12-05T19:24:06.620Z,26.27
2018-12-05T19:26:32.560Z,19.23
2018-12-05T19:28:58.499Z,20.13
2018-12-05T19:31:24.413Z,21.53
2018-12-05T19:33:59.273Z,18.63
2018-12-05T19:36:25.263Z,19.73
2018-12-05T19:38:51.410Z,27.62
2018-12-05T19:41:17.409Z,13.30
2018-12-05T19:43:43.288Z,16.65
2018-12-05T19:46:09.188Z,17.10
2018-12-05T19:48:36.833Z,21.73
2018-12-05T19:51:02.986Z,17.48
2018-12-05T19:53:28.893Z,19.12
2018-12-05T19:55:54.816Z,18.10
2018-12-05T19:58:20.788Z,18.83
2018-12-05T20:00:50.339Z,20.70
2018-12-05T20:03:16.211Z,23.87
2018-12-05T20:05:42.076Z,24.63
2018-12-05T20:08:07.979Z,16.47
2018-12-05T20:10:33.921Z,21.20
2018-12-05T20:13:01.476Z,18.73
2018-12-05T20:15:30.654Z,17.40
2018-12-05T20:17:56.566Z,19.80
2018-12-05T20:20:22.722Z,15.97
2018-12-05T20:22:50.364Z,17.90
2018-12-05T20:25:16.265Z,18.42
2018-12-05T20:27:45.076Z,18.33
2018-12-05T20:30:10.971Z,22.00
2018-12-05T20:32:39.779Z,19.67
2018-12-05T20:35:05.850Z,22.05
2018-12-05T20:40:03.978Z,16.42
2018-12-05T20:42:29.991Z,16.77
2018-12-05T20:44:55.888Z,20.37
2018-12-05T20:47:21.766Z,21.30
2018-12-05T20:49:48.120Z,21.07
2018-12-05T20:52:13.996Z,15.80
2018-12-05T20:54:41.089Z,14.90
2018-12-05T20:57:07.059Z,18.57
2018-12-05T20:59:35.734Z,18.23
2018-12-05T21:02:01.639Z,16.40
2018-12-05T21:04:30.654Z,19.80
2018-12-05T21:06:56.557Z,17.15
2018-12-05T21:09:25.622Z,19.87
2018-12-05T21:11:51.528Z,22.58
2018-12-05T21:14:21.179Z,18.30
2018-12-05T21:16:47.143Z,18.62
2018-12-05T21:19:15.890Z,19.87
2018-12-05T21:21:41.818Z,19.10
2018-12-05T21:24:08.386Z,19.00
2018-12-05T21:26:34.428Z,21.07
2018-12-05T21:29:00.362Z,23.70
2018-12-05T21:31:26.250Z,19.43
2018-12-05T21:33:52.140Z,19.07
2018-12-05T21:36:21.936Z,20.73
2018-12-05T21:38:48.049Z,18.80
2018-12-05T21:41:17.114Z,28.17
2018-12-05T21:43:43.004Z,22.13
2018-12-05T21:46:10.725Z,22.07
2018-12-05T21:48:36.594Z,21.60
2018-12-05T21:51:05.512Z,17.73
2018-12-05T21:53:31.389Z,26.82
2018-12-05T21:55:57.269Z,24.03
2018-12-05T21:58:23.165Z,17.60
2018-12-05T22:00:49.051Z,22.00
2018-12-05T22:03:18.983Z,26.20
2018-12-05T22:05:44.932Z,25.75
2018-12-05T22:08:11.403Z,33.63
2018-12-05T22:10:37.260Z,23.77
2018-12-05T22:13:06.139Z,24.77
2018-12-05T22:15:32.051Z,19.90
2018-12-05T22:18:01.055Z,21.97
2018-12-05T22:20:26.942Z,18.92
2018-12-05T22:22:56.385Z,26.40
2018-12-05T22:25:22.261Z,21.90
2018-12-05T22:27:51.678Z,23.03
2018-12-05T22:30:17.608Z,22.48
2018-12-05T22:32:43.499Z,25.20
2018-12-05T22:35:11.435Z,22.30
2018-12-05T22:37:37.370Z,20.77
2018-12-05T22:40:05.422Z,21.60
2018-12-05T22:42:31.330Z,19.27
2018-12-05T22:44:57.196Z,23.30
2018-12-05T22:47:23.167Z,27.60
2018-12-05T22:49:52.268Z,25.33
2018-12-05T22:52:22.632Z,23.85
2018-12-05T22:54:48.530Z,21.60
2018-12-05T22:57:14.437Z,23.03
2018-12-05T22:59:41.751Z,26.10
2018-12-05T23:02:07.699Z,29.52
2018-12-05T23:04:36.684Z,29.23
2018-12-05T23:07:02.752Z,25.12
2018-12-05T23:09:28.650Z,26.35
2018-12-05T23:11:54.505Z,30.07
2018-12-05T23:14:20.347Z,27.70
2018-12-05T23:16:47.913Z,23.70
2018-12-05T23:19:13.773Z,32.67
2018-12-05T23:21:43.468Z,20.33
2018-12-05T23:24:09.583Z,25.40
2018-12-05T23:26:37.328Z,26.07
2018-12-05T23:29:03.372Z,22.98
2018-12-05T23:31:33.070Z,22.27
2018-12-05T23:33:58.907Z,21.57
2018-12-05T23:36:27.872Z,22.87
2018-12-05T23:38:53.746Z,20.92
2018-12-05T23:41:21.570Z,22.27
2018-12-05T23:43:47.483Z,27.90
2018-12-05T23:46:13.416Z,26.67
2018-12-05T23:48:39.307Z,23.43
2018-12-05T23:51:05.185Z,29.40
2018-12-05T23:53:37.445Z,24.27
2018-12-05T23:56:03.713Z,22.95
2018-12-05T23:58:29.612Z,22.20
